Narka, Kansas
Current Conditions -  °F | °C
As of 2:15 AM on Saturday 29 Nov 2014 (Local Time) from KHJH Reporting Station
Clear Clear  
Wind Chill:   Ceiling: Unl
Heat Index:   Visibility: 10mi
Dew Point: -1°   Wind: 0mph
Humidity: 59%   Direction: NA
Pressure: 29.62"   Gusts: NA
Location:  39.96°N, 97.43°W
Report Text: KHJH 290815Z AUTO 00000KT 10SM CLR 06/M01 A2962 RMK AO2 T00641012
Loading
Personal Weather Stations






























Interactive Weather Map New forecast layout! Learn more

10-Day Weather Forecast

Advertisements
Track Severe Weather on mobile